sensor_id;sensor_type;location;lat;lon;timestamp;P1;durP1;ratioP1;P2;durP2;ratioP2
5754;SDS011;2902;42.130;24.732;2023-06-19T00:00:15;6.63;;;6.17;;
5754;SDS011;2902;42.130;24.732;2023-06-19T00:02:42;6.37;;;6.00;;
5754;SDS011;2902;42.130;24.732;2023-06-19T00:05:09;6.53;;;6.03;;
5754;SDS011;2902;42.130;24.732;2023-06-19T00:07:36;6.47;;;6.03;;
5754;SDS011;2902;42.130;24.732;2023-06-19T00:10:03;6.77;;;6.13;;
5754;SDS011;2902;42.130;24.732;2023-06-19T00:12:33;6.13;;;5.77;;
5754;SDS011;2902;42.130;24.732;2023-06-19T00:14:59;6.30;;;5.77;;
5754;SDS011;2902;42.130;24.732;2023-06-19T00:17:27;6.70;;;6.30;;
5754;SDS011;2902;42.130;24.732;2023-06-19T00:19:54;7.10;;;6.50;;
5754;SDS011;2902;42.130;24.732;2023-06-19T00:22:20;6.43;;;5.97;;
5754;SDS011;2902;42.130;24.732;2023-06-19T00:24:47;6.57;;;6.17;;
5754;SDS011;2902;42.130;24.732;2023-06-19T00:27:14;6.23;;;5.70;;
5754;SDS011;2902;42.130;24.732;2023-06-19T00:29:42;7.53;;;6.70;;
5754;SDS011;2902;42.130;24.732;2023-06-19T00:32:08;19.90;;;7.50;;
5754;SDS011;2902;42.130;24.732;2023-06-19T00:34:35;12.70;;;7.33;;
5754;SDS011;2902;42.130;24.732;2023-06-19T00:37:03;6.87;;;6.37;;
5754;SDS011;2902;42.130;24.732;2023-06-19T00:39:30;6.43;;;5.93;;
5754;SDS011;2902;42.130;24.732;2023-06-19T00:41:57;6.27;;;5.93;;
5754;SDS011;2902;42.130;24.732;2023-06-19T00:44:24;6.20;;;5.80;;
5754;SDS011;2902;42.130;24.732;2023-06-19T00:46:55;6.17;;;5.80;;
5754;SDS011;2902;42.130;24.732;2023-06-19T00:49:23;5.70;;;5.40;;
5754;SDS011;2902;42.130;24.732;2023-06-19T00:51:51;5.97;;;5.67;;
5754;SDS011;2902;42.130;24.732;2023-06-19T00:54:19;6.40;;;5.80;;
5754;SDS011;2902;42.130;24.732;2023-06-19T00:56:46;6.47;;;6.07;;
5754;SDS011;2902;42.130;24.732;2023-06-19T00:59:14;6.50;;;6.00;;
5754;SDS011;2902;42.130;24.732;2023-06-19T01:01:43;6.27;;;5.77;;
5754;SDS011;2902;42.130;24.732;2023-06-19T01:04:12;6.27;;;5.80;;
5754;SDS011;2902;42.130;24.732;2023-06-19T01:06:41;5.50;;;5.10;;
5754;SDS011;2902;42.130;24.732;2023-06-19T01:09:13;6.73;;;6.33;;
5754;SDS011;2902;42.130;24.732;2023-06-19T01:11:44;6.33;;;5.67;;
5754;SDS011;2902;42.130;24.732;2023-06-19T01:14:16;7.20;;;6.50;;
5754;SDS011;2902;42.130;24.732;2023-06-19T01:16:45;6.27;;;5.77;;
5754;SDS011;2902;42.130;24.732;2023-06-19T01:19:15;5.83;;;5.50;;
5754;SDS011;2902;42.130;24.732;2023-06-19T01:21:44;6.23;;;5.90;;
5754;SDS011;2902;42.130;24.732;2023-06-19T01:24:13;5.87;;;5.33;;
5754;SDS011;2902;42.130;24.732;2023-06-19T01:26:40;6.30;;;5.80;;
5754;SDS011;2902;42.130;24.732;2023-06-19T01:29:11;6.10;;;5.50;;
5754;SDS011;2902;42.130;24.732;2023-06-19T01:31:42;5.80;;;5.60;;
5754;SDS011;2902;42.130;24.732;2023-06-19T01:34:14;6.03;;;5.73;;
5754;SDS011;2902;42.130;24.732;2023-06-19T01:36:43;6.03;;;5.70;;
5754;SDS011;2902;42.130;24.732;2023-06-19T01:39:12;5.97;;;5.60;;
5754;SDS011;2902;42.130;24.732;2023-06-19T01:41:39;5.67;;;5.37;;
5754;SDS011;2902;42.130;24.732;2023-06-19T01:44:06;8.40;;;5.73;;
5754;SDS011;2902;42.130;24.732;2023-06-19T01:46:34;5.53;;;5.10;;
5754;SDS011;2902;42.130;24.732;2023-06-19T01:49:01;6.23;;;5.70;;
5754;SDS011;2902;42.130;24.732;2023-06-19T01:51:32;5.30;;;5.07;;
5754;SDS011;2902;42.130;24.732;2023-06-19T01:53:58;5.80;;;5.50;;
5754;SDS011;2902;42.130;24.732;2023-06-19T01:56:26;9.60;;;6.40;;
5754;SDS011;2902;42.130;24.732;2023-06-19T01:58:54;6.20;;;5.60;;
5754;SDS011;2902;42.130;24.732;2023-06-19T02:01:20;6.47;;;5.73;;
5754;SDS011;2902;42.130;24.732;2023-06-19T02:03:47;6.10;;;5.70;;
5754;SDS011;2902;42.130;24.732;2023-06-19T02:06:14;5.80;;;5.27;;
5754;SDS011;2902;42.130;24.732;2023-06-19T02:08:41;6.40;;;5.97;;
5754;SDS011;2902;42.130;24.732;2023-06-19T02:11:07;6.60;;;5.40;;
5754;SDS011;2902;42.130;24.732;2023-06-19T02:13:35;6.20;;;5.70;;
5754;SDS011;2902;42.130;24.732;2023-06-19T02:16:02;6.13;;;5.63;;
5754;SDS011;2902;42.130;24.732;2023-06-19T02:18:29;5.63;;;5.27;;
5754;SDS011;2902;42.130;24.732;2023-06-19T02:20:56;7.67;;;5.60;;
5754;SDS011;2902;42.130;24.732;2023-06-19T02:23:23;5.53;;;5.17;;
5754;SDS011;2902;42.130;24.732;2023-06-19T02:25:49;6.07;;;5.50;;
5754;SDS011;2902;42.130;24.732;2023-06-19T02:28:16;6.13;;;5.70;;
5754;SDS011;2902;42.130;24.732;2023-06-19T02:30:44;5.57;;;5.30;;
5754;SDS011;2902;42.130;24.732;2023-06-19T02:33:12;10.33;;;6.17;;
5754;SDS011;2902;42.130;24.732;2023-06-19T02:35:39;6.20;;;5.50;;
5754;SDS011;2902;42.130;24.732;2023-06-19T02:38:06;6.00;;;5.70;;
5754;SDS011;2902;42.130;24.732;2023-06-19T02:40:33;6.00;;;5.30;;
5754;SDS011;2902;42.130;24.732;2023-06-19T02:43:00;6.43;;;5.10;;
5754;SDS011;2902;42.130;24.732;2023-06-19T02:45:26;5.53;;;5.17;;
5754;SDS011;2902;42.130;24.732;2023-06-19T02:47:54;6.27;;;5.67;;
5754;SDS011;2902;42.130;24.732;2023-06-19T02:50:21;5.97;;;5.50;;
5754;SDS011;2902;42.130;24.732;2023-06-19T02:52:48;6.80;;;5.30;;
5754;SDS011;2902;42.130;24.732;2023-06-19T02:55:15;6.17;;;5.77;;
5754;SDS011;2902;42.130;24.732;2023-06-19T02:57:42;7.27;;;5.33;;
5754;SDS011;2902;42.130;24.732;2023-06-19T03:00:10;6.47;;;5.33;;
5754;SDS011;2902;42.130;24.732;2023-06-19T03:02:37;5.27;;;4.77;;
5754;SDS011;2902;42.130;24.732;2023-06-19T03:05:09;5.73;;;5.20;;
5754;SDS011;2902;42.130;24.732;2023-06-19T03:07:41;6.03;;;5.47;;
5754;SDS011;2902;42.130;24.732;2023-06-19T03:10:07;7.73;;;5.40;;
5754;SDS011;2902;42.130;24.732;2023-06-19T03:12:35;5.70;;;5.30;;
5754;SDS011;2902;42.130;24.732;2023-06-19T03:15:01;5.73;;;5.20;;
5754;SDS011;2902;42.130;24.732;2023-06-19T03:17:28;6.43;;;5.67;;
5754;SDS011;2902;42.130;24.732;2023-06-19T03:19:55;9.30;;;5.40;;
5754;SDS011;2902;42.130;24.732;2023-06-19T03:22:23;5.83;;;5.37;;
5754;SDS011;2902;42.130;24.732;2023-06-19T03:24:50;5.77;;;5.23;;
5754;SDS011;2902;42.130;24.732;2023-06-19T03:27:17;6.30;;;5.70;;
5754;SDS011;2902;42.130;24.732;2023-06-19T03:29:44;6.57;;;5.20;;
5754;SDS011;2902;42.130;24.732;2023-06-19T03:32:10;8.83;;;5.60;;
5754;SDS011;2902;42.130;24.732;2023-06-19T03:34:37;6.73;;;6.07;;
5754;SDS011;2902;42.130;24.732;2023-06-19T03:37:04;7.40;;;5.90;;
5754;SDS011;2902;42.130;24.732;2023-06-19T03:39:33;6.63;;;5.83;;
5754;SDS011;2902;42.130;24.732;2023-06-19T03:41:59;6.00;;;5.47;;
5754;SDS011;2902;42.130;24.732;2023-06-19T03:44:26;9.10;;;5.20;;
5754;SDS011;2902;42.130;24.732;2023-06-19T03:46:53;6.30;;;5.33;;
5754;SDS011;2902;42.130;24.732;2023-06-19T03:49:20;6.53;;;5.40;;
5754;SDS011;2902;42.130;24.732;2023-06-19T03:51:46;5.93;;;5.53;;
5754;SDS011;2902;42.130;24.732;2023-06-19T03:54:13;5.83;;;5.40;;
5754;SDS011;2902;42.130;24.732;2023-06-19T03:56:43;5.60;;;5.20;;
5754;SDS011;2902;42.130;24.732;2023-06-19T03:59:09;5.67;;;5.37;;
5754;SDS011;2902;42.130;24.732;2023-06-19T04:01:36;8.10;;;5.63;;
5754;SDS011;2902;42.130;24.732;2023-06-19T04:04:03;11.70;;;6.13;;
5754;SDS011;2902;42.130;24.732;2023-06-19T04:06:30;12.20;;;6.33;;
5754;SDS011;2902;42.130;24.732;2023-06-19T04:08:56;10.20;;;6.37;;
5754;SDS011;2902;42.130;24.732;2023-06-19T04:11:23;19.53;;;6.17;;
5754;SDS011;2902;42.130;24.732;2023-06-19T04:13:51;6.67;;;6.10;;
5754;SDS011;2902;42.130;24.732;2023-06-19T04:16:18;6.40;;;5.80;;
5754;SDS011;2902;42.130;24.732;2023-06-19T04:18:44;12.07;;;6.13;;
5754;SDS011;2902;42.130;24.732;2023-06-19T04:21:11;12.93;;;6.20;;
5754;SDS011;2902;42.130;24.732;2023-06-19T04:23:38;13.43;;;6.80;;
5754;SDS011;2902;42.130;24.732;2023-06-19T04:26:04;8.40;;;5.53;;
5754;SDS011;2902;42.130;24.732;2023-06-19T04:28:31;6.97;;;5.63;;
5754;SDS011;2902;42.130;24.732;2023-06-19T04:30:59;5.70;;;5.10;;
5754;SDS011;2902;42.130;24.732;2023-06-19T04:33:26;9.53;;;5.37;;
5754;SDS011;2902;42.130;24.732;2023-06-19T04:35:53;6.37;;;4.90;;
5754;SDS011;2902;42.130;24.732;2023-06-19T04:38:20;13.70;;;5.20;;
5754;SDS011;2902;42.130;24.732;2023-06-19T04:40:48;4.90;;;4.53;;
5754;SDS011;2902;42.130;24.732;2023-06-19T04:43:15;6.23;;;4.50;;
5754;SDS011;2902;42.130;24.732;2023-06-19T04:45:42;5.13;;;4.53;;
5754;SDS011;2902;42.130;24.732;2023-06-19T04:48:10;5.17;;;4.70;;
5754;SDS011;2902;42.130;24.732;2023-06-19T04:50:37;5.40;;;4.77;;
5754;SDS011;2902;42.130;24.732;2023-06-19T04:53:04;7.13;;;4.73;;
5754;SDS011;2902;42.130;24.732;2023-06-19T04:55:31;12.73;;;5.13;;
5754;SDS011;2902;42.130;24.732;2023-06-19T04:57:58;15.33;;;5.43;;
5754;SDS011;2902;42.130;24.732;2023-06-19T05:00:25;5.80;;;4.87;;
5754;SDS011;2902;42.130;24.732;2023-06-19T05:02:51;14.47;;;6.40;;
5754;SDS011;2902;42.130;24.732;2023-06-19T05:05:20;6.87;;;4.67;;
5754;SDS011;2902;42.130;24.732;2023-06-19T05:07:46;6.77;;;4.70;;
5754;SDS011;2902;42.130;24.732;2023-06-19T05:10:13;8.60;;;4.63;;
5754;SDS011;2902;42.130;24.732;2023-06-19T05:12:40;12.33;;;5.07;;
5754;SDS011;2902;42.130;24.732;2023-06-19T05:15:07;6.83;;;4.97;;
5754;SDS011;2902;42.130;24.732;2023-06-19T05:17:34;7.27;;;4.70;;
5754;SDS011;2902;42.130;24.732;2023-06-19T05:20:04;4.97;;;4.57;;
5754;SDS011;2902;42.130;24.732;2023-06-19T05:22:33;17.07;;;5.17;;
5754;SDS011;2902;42.130;24.732;2023-06-19T05:25:01;7.83;;;4.77;;
5754;SDS011;2902;42.130;24.732;2023-06-19T05:27:28;5.83;;;4.43;;
5754;SDS011;2902;42.130;24.732;2023-06-19T05:29:55;5.33;;;4.80;;
5754;SDS011;2902;42.130;24.732;2023-06-19T05:32:21;9.13;;;5.00;;
5754;SDS011;2902;42.130;24.732;2023-06-19T05:34:48;9.17;;;4.40;;
5754;SDS011;2902;42.130;24.732;2023-06-19T05:37:15;10.53;;;4.50;;
5754;SDS011;2902;42.130;24.732;2023-06-19T05:39:44;5.07;;;4.10;;
5754;SDS011;2902;42.130;24.732;2023-06-19T05:42:10;5.07;;;4.03;;
5754;SDS011;2902;42.130;24.732;2023-06-19T05:44:37;4.37;;;4.17;;
5754;SDS011;2902;42.130;24.732;2023-06-19T05:47:05;7.27;;;4.67;;
5754;SDS011;2902;42.130;24.732;2023-06-19T05:49:32;6.50;;;4.80;;
5754;SDS011;2902;42.130;24.732;2023-06-19T05:51:58;4.70;;;4.17;;
5754;SDS011;2902;42.130;24.732;2023-06-19T05:54:26;5.83;;;4.90;;
5754;SDS011;2902;42.130;24.732;2023-06-19T05:56:54;5.50;;;4.60;;
5754;SDS011;2902;42.130;24.732;2023-06-19T05:59:20;7.97;;;4.70;;
5754;SDS011;2902;42.130;24.732;2023-06-19T06:01:47;5.47;;;4.93;;
5754;SDS011;2902;42.130;24.732;2023-06-19T06:04:15;4.47;;;4.27;;
5754;SDS011;2902;42.130;24.732;2023-06-19T06:06:42;6.13;;;5.17;;
5754;SDS011;2902;42.130;24.732;2023-06-19T06:09:09;6.60;;;4.60;;
5754;SDS011;2902;42.130;24.732;2023-06-19T06:11:37;18.83;;;6.00;;
5754;SDS011;2902;42.130;24.732;2023-06-19T06:14:05;4.97;;;4.47;;
5754;SDS011;2902;42.130;24.732;2023-06-19T06:16:32;8.27;;;4.50;;
5754;SDS011;2902;42.130;24.732;2023-06-19T06:18:58;4.87;;;4.47;;
5754;SDS011;2902;42.130;24.732;2023-06-19T06:21:25;4.60;;;4.30;;
5754;SDS011;2902;42.130;24.732;2023-06-19T06:23:52;5.03;;;4.27;;
5754;SDS011;2902;42.130;24.732;2023-06-19T06:26:19;4.73;;;4.43;;
5754;SDS011;2902;42.130;24.732;2023-06-19T06:28:46;8.23;;;4.80;;
5754;SDS011;2902;42.130;24.732;2023-06-19T06:31:14;7.80;;;4.57;;
5754;SDS011;2902;42.130;24.732;2023-06-19T06:33:41;5.63;;;5.17;;
5754;SDS011;2902;42.130;24.732;2023-06-19T06:36:08;4.73;;;4.43;;
5754;SDS011;2902;42.130;24.732;2023-06-19T06:38:34;9.17;;;4.20;;
5754;SDS011;2902;42.130;24.732;2023-06-19T06:41:01;5.47;;;4.47;;
5754;SDS011;2902;42.130;24.732;2023-06-19T06:43:28;12.63;;;4.50;;
5754;SDS011;2902;42.130;24.732;2023-06-19T06:45:55;5.90;;;4.27;;
5754;SDS011;2902;42.130;24.732;2023-06-19T06:48:23;5.50;;;4.20;;
5754;SDS011;2902;42.130;24.732;2023-06-19T06:50:50;5.27;;;4.50;;
5754;SDS011;2902;42.130;24.732;2023-06-19T06:53:17;8.70;;;4.37;;
5754;SDS011;2902;42.130;24.732;2023-06-19T06:55:44;5.77;;;3.87;;
5754;SDS011;2902;42.130;24.732;2023-06-19T06:58:11;6.00;;;4.37;;
5754;SDS011;2902;42.130;24.732;2023-06-19T07:00:39;9.40;;;3.80;;
5754;SDS011;2902;42.130;24.732;2023-06-19T07:03:06;7.70;;;4.20;;
5754;SDS011;2902;42.130;24.732;2023-06-19T07:05:34;5.33;;;4.63;;
5754;SDS011;2902;42.130;24.732;2023-06-19T07:08:01;8.07;;;4.40;;
5754;SDS011;2902;42.130;24.732;2023-06-19T07:10:28;5.30;;;4.03;;
5754;SDS011;2902;42.130;24.732;2023-06-19T07:12:55;6.70;;;4.20;;
5754;SDS011;2902;42.130;24.732;2023-06-19T07:15:22;4.90;;;4.23;;
5754;SDS011;2902;42.130;24.732;2023-06-19T07:17:49;4.73;;;4.20;;
5754;SDS011;2902;42.130;24.732;2023-06-19T07:20:15;7.73;;;4.53;;
5754;SDS011;2902;42.130;24.732;2023-06-19T07:22:44;5.33;;;3.87;;
5754;SDS011;2902;42.130;24.732;2023-06-19T07:25:11;9.13;;;4.37;;
5754;SDS011;2902;42.130;24.732;2023-06-19T07:27:38;4.27;;;4.03;;
5754;SDS011;2902;42.130;24.732;2023-06-19T07:30:07;4.77;;;4.30;;
5754;SDS011;2902;42.130;24.732;2023-06-19T07:32:34;5.23;;;4.47;;
5754;SDS011;2902;42.130;24.732;2023-06-19T07:35:00;4.23;;;3.87;;
5754;SDS011;2902;42.130;24.732;2023-06-19T07:37:27;4.70;;;4.30;;
5754;SDS011;2902;42.130;24.732;2023-06-19T07:39:55;6.53;;;4.37;;
5754;SDS011;2902;42.130;24.732;2023-06-19T07:42:22;7.83;;;4.70;;
5754;SDS011;2902;42.130;24.732;2023-06-19T07:44:49;4.83;;;4.07;;
5754;SDS011;2902;42.130;24.732;2023-06-19T07:47:16;6.23;;;4.90;;
5754;SDS011;2902;42.130;24.732;2023-06-19T07:49:44;4.87;;;4.47;;
5754;SDS011;2902;42.130;24.732;2023-06-19T07:52:11;4.07;;;3.87;;
5754;SDS011;2902;42.130;24.732;2023-06-19T07:54:47;4.03;;;3.67;;
5754;SDS011;2902;42.130;24.732;2023-06-19T07:57:17;9.27;;;4.33;;
5754;SDS011;2902;42.130;24.732;2023-06-19T07:59:44;7.00;;;4.00;;
5754;SDS011;2902;42.130;24.732;2023-06-19T08:02:12;7.07;;;4.73;;
5754;SDS011;2902;42.130;24.732;2023-06-19T08:04:38;5.00;;;4.60;;
5754;SDS011;2902;42.130;24.732;2023-06-19T08:07:05;7.63;;;4.97;;
5754;SDS011;2902;42.130;24.732;2023-06-19T08:09:32;4.87;;;4.40;;
5754;SDS011;2902;42.130;24.732;2023-06-19T08:11:59;4.37;;;4.13;;
5754;SDS011;2902;42.130;24.732;2023-06-19T08:14:28;12.63;;;4.83;;
5754;SDS011;2902;42.130;24.732;2023-06-19T08:16:55;4.57;;;4.17;;
5754;SDS011;2902;42.130;24.732;2023-06-19T08:19:21;6.10;;;4.77;;
5754;SDS011;2902;42.130;24.732;2023-06-19T08:21:48;4.70;;;4.07;;
5754;SDS011;2902;42.130;24.732;2023-06-19T08:24:15;5.53;;;4.43;;
5754;SDS011;2902;42.130;24.732;2023-06-19T08:26:42;4.57;;;4.20;;
5754;SDS011;2902;42.130;24.732;2023-06-19T08:29:08;14.23;;;4.53;;
5754;SDS011;2902;42.130;24.732;2023-06-19T08:31:37;3.77;;;3.57;;
5754;SDS011;2902;42.130;24.732;2023-06-19T08:34:03;4.55;;;4.15;;
5754;SDS011;2902;42.130;24.732;2023-06-19T08:36:33;7.07;;;4.53;;
5754;SDS011;2902;42.130;24.732;2023-06-19T08:38:59;5.57;;;4.80;;
5754;SDS011;2902;42.130;24.732;2023-06-19T08:41:26;5.43;;;4.07;;
5754;SDS011;2902;42.130;24.732;2023-06-19T08:43:53;8.20;;;4.27;;
5754;SDS011;2902;42.130;24.732;2023-06-19T08:46:21;9.10;;;4.47;;
5754;SDS011;2902;42.130;24.732;2023-06-19T08:48:49;4.93;;;4.20;;
5754;SDS011;2902;42.130;24.732;2023-06-19T08:51:15;8.07;;;5.00;;
5754;SDS011;2902;42.130;24.732;2023-06-19T08:53:46;6.23;;;4.80;;
5754;SDS011;2902;42.130;24.732;2023-06-19T08:56:15;5.13;;;4.70;;
5754;SDS011;2902;42.130;24.732;2023-06-19T08:58:42;4.30;;;4.10;;
5754;SDS011;2902;42.130;24.732;2023-06-19T09:01:09;8.53;;;4.73;;
5754;SDS011;2902;42.130;24.732;2023-06-19T09:03:35;4.87;;;4.37;;
5754;SDS011;2902;42.130;24.732;2023-06-19T09:06:04;4.83;;;4.50;;
5754;SDS011;2902;42.130;24.732;2023-06-19T09:08:33;4.93;;;4.30;;
5754;SDS011;2902;42.130;24.732;2023-06-19T09:11:00;4.50;;;4.03;;
5754;SDS011;2902;42.130;24.732;2023-06-19T09:13:28;5.93;;;4.57;;
5754;SDS011;2902;42.130;24.732;2023-06-19T09:15:59;4.40;;;4.17;;
5754;SDS011;2902;42.130;24.732;2023-06-19T09:18:28;17.47;;;5.90;;
5754;SDS011;2902;42.130;24.732;2023-06-19T09:20:56;9.93;;;5.17;;
5754;SDS011;2902;42.130;24.732;2023-06-19T09:23:24;4.87;;;4.40;;
5754;SDS011;2902;42.130;24.732;2023-06-19T09:25:52;10.40;;;4.83;;
5754;SDS011;2902;42.130;24.732;2023-06-19T09:28:20;4.77;;;4.20;;
5754;SDS011;2902;42.130;24.732;2023-06-19T09:30:54;5.13;;;4.27;;
5754;SDS011;2902;42.130;24.732;2023-06-19T09:33:22;4.43;;;4.10;;
5754;SDS011;2902;42.130;24.732;2023-06-19T09:35:49;4.57;;;4.30;;
5754;SDS011;2902;42.130;24.732;2023-06-19T09:38:17;4.43;;;4.13;;
5754;SDS011;2902;42.130;24.732;2023-06-19T09:40:47;4.38;;;3.97;;
5754;SDS011;2902;42.130;24.732;2023-06-19T09:43:15;5.57;;;4.15;;
5754;SDS011;2902;42.130;24.732;2023-06-19T09:45:48;4.43;;;4.23;;
5754;SDS011;2902;42.130;24.732;2023-06-19T09:48:18;5.82;;;4.25;;
5754;SDS011;2902;42.130;24.732;2023-06-19T09:50:50;4.93;;;4.22;;
5754;SDS011;2902;42.130;24.732;2023-06-19T09:53:17;4.25;;;3.78;;
5754;SDS011;2902;42.130;24.732;2023-06-19T09:55:48;4.20;;;3.85;;
5754;SDS011;2902;42.130;24.732;2023-06-19T09:58:17;28.88;;;5.32;;
5754;SDS011;2902;42.130;24.732;2023-06-19T10:00:45;4.60;;;3.90;;
5754;SDS011;2902;42.130;24.732;2023-06-19T10:03:14;4.00;;;3.60;;
5754;SDS011;2902;42.130;24.732;2023-06-19T10:05:42;4.82;;;4.40;;
5754;SDS011;2902;42.130;24.732;2023-06-19T10:08:09;3.70;;;3.50;;
5754;SDS011;2902;42.130;24.732;2023-06-19T10:10:36;5.82;;;4.05;;
5754;SDS011;2902;42.130;24.732;2023-06-19T10:13:13;5.32;;;3.88;;
5754;SDS011;2902;42.130;24.732;2023-06-19T10:15:41;6.70;;;4.72;;
5754;SDS011;2902;42.130;24.732;2023-06-19T10:18:12;5.72;;;3.90;;
5754;SDS011;2902;42.130;24.732;2023-06-19T10:20:41;4.47;;;4.28;;
5754;SDS011;2902;42.130;24.732;2023-06-19T10:23:10;5.82;;;4.18;;
5754;SDS011;2902;42.130;24.732;2023-06-19T10:25:42;10.70;;;4.63;;
5754;SDS011;2902;42.130;24.732;2023-06-19T10:28:17;10.75;;;4.95;;
5754;SDS011;2902;42.130;24.732;2023-06-19T10:30:44;4.90;;;4.50;;
5754;SDS011;2902;42.130;24.732;2023-06-19T10:33:11;24.90;;;5.47;;
5754;SDS011;2902;42.130;24.732;2023-06-19T10:35:38;4.43;;;4.13;;
5754;SDS011;2902;42.130;24.732;2023-06-19T10:38:06;7.95;;;4.05;;
5754;SDS011;2902;42.130;24.732;2023-06-19T10:40:34;5.75;;;4.07;;
5754;SDS011;2902;42.130;24.732;2023-06-19T10:43:02;10.02;;;4.15;;
5754;SDS011;2902;42.130;24.732;2023-06-19T10:45:30;6.35;;;4.50;;
5754;SDS011;2902;42.130;24.732;2023-06-19T10:47:57;7.28;;;4.05;;
5754;SDS011;2902;42.130;24.732;2023-06-19T10:50:27;6.45;;;3.75;;
5754;SDS011;2902;42.130;24.732;2023-06-19T10:52:54;4.07;;;3.67;;
5754;SDS011;2902;42.130;24.732;2023-06-19T10:55:24;4.93;;;4.28;;
5754;SDS011;2902;42.130;24.732;2023-06-19T10:57:50;5.07;;;4.50;;
5754;SDS011;2902;42.130;24.732;2023-06-19T11:00:24;4.35;;;3.92;;
5754;SDS011;2902;42.130;24.732;2023-06-19T11:02:54;10.88;;;3.95;;
5754;SDS011;2902;42.130;24.732;2023-06-19T11:05:21;78.50;;;9.95;;
5754;SDS011;2902;42.130;24.732;2023-06-19T11:07:52;5.70;;;3.92;;
5754;SDS011;2902;42.130;24.732;2023-06-19T11:10:20;4.18;;;3.83;;
5754;SDS011;2902;42.130;24.732;2023-06-19T11:12:48;13.98;;;4.50;;
5754;SDS011;2902;42.130;24.732;2023-06-19T11:15:15;12.93;;;4.13;;
5754;SDS011;2902;42.130;24.732;2023-06-19T11:17:42;5.63;;;3.50;;
5754;SDS011;2902;42.130;24.732;2023-06-19T11:20:11;5.65;;;3.78;;
5754;SDS011;2902;42.130;24.732;2023-06-19T11:22:38;3.53;;;3.33;;
5754;SDS011;2902;42.130;24.732;2023-06-19T11:25:07;5.78;;;3.83;;
5754;SDS011;2902;42.130;24.732;2023-06-19T11:27:36;5.82;;;4.22;;
5754;SDS011;2902;42.130;24.732;2023-06-19T11:30:05;4.95;;;4.10;;
5754;SDS011;2902;42.130;24.732;2023-06-19T11:32:34;3.80;;;3.55;;
5754;SDS011;2902;42.130;24.732;2023-06-19T11:35:06;4.28;;;3.88;;
5754;SDS011;2902;42.130;24.732;2023-06-19T11:37:35;3.60;;;3.30;;
5754;SDS011;2902;42.130;24.732;2023-06-19T11:40:02;4.15;;;3.78;;
5754;SDS011;2902;42.130;24.732;2023-06-19T11:42:43;4.25;;;3.50;;
5754;SDS011;2902;42.130;24.732;2023-06-19T11:45:11;8.77;;;3.78;;
5754;SDS011;2902;42.130;24.732;2023-06-19T11:47:38;8.90;;;3.58;;
5754;SDS011;2902;42.130;24.732;2023-06-19T11:50:05;3.20;;;3.03;;
5754;SDS011;2902;42.130;24.732;2023-06-19T11:52:33;3.72;;;3.50;;
5754;SDS011;2902;42.130;24.732;2023-06-19T11:55:01;4.60;;;4.20;;
5754;SDS011;2902;42.130;24.732;2023-06-19T11:57:27;4.63;;;3.40;;
5754;SDS011;2902;42.130;24.732;2023-06-19T11:59:54;3.97;;;3.38;;
5754;SDS011;2902;42.130;24.732;2023-06-19T12:02:21;3.47;;;3.38;;
5754;SDS011;2902;42.130;24.732;2023-06-19T12:04:48;7.78;;;3.65;;
5754;SDS011;2902;42.130;24.732;2023-06-19T12:07:15;3.80;;;3.50;;
5754;SDS011;2902;42.130;24.732;2023-06-19T12:09:41;40.53;;;5.38;;
5754;SDS011;2902;42.130;24.732;2023-06-19T12:12:10;4.22;;;3.33;;
5754;SDS011;2902;42.130;24.732;2023-06-19T12:14:37;3.80;;;3.05;;
5754;SDS011;2902;42.130;24.732;2023-06-19T12:17:04;7.45;;;3.47;;
5754;SDS011;2902;42.130;24.732;2023-06-19T12:19:31;5.85;;;3.20;;
5754;SDS011;2902;42.130;24.732;2023-06-19T12:21:58;10.05;;;3.42;;
5754;SDS011;2902;42.130;24.732;2023-06-19T12:24:25;3.33;;;2.67;;
5754;SDS011;2902;42.130;24.732;2023-06-19T12:26:52;4.18;;;2.80;;
5754;SDS011;2902;42.130;24.732;2023-06-19T12:29:20;5.30;;;2.88;;
5754;SDS011;2902;42.130;24.732;2023-06-19T12:31:46;4.88;;;2.90;;
5754;SDS011;2902;42.130;24.732;2023-06-19T12:34:13;12.45;;;3.40;;
5754;SDS011;2902;42.130;24.732;2023-06-19T12:36:40;2.88;;;2.67;;
5754;SDS011;2902;42.130;24.732;2023-06-19T12:39:06;5.97;;;2.55;;
5754;SDS011;2902;42.130;24.732;2023-06-19T12:41:39;9.32;;;3.65;;
5754;SDS011;2902;42.130;24.732;2023-06-19T12:44:06;8.43;;;3.15;;
5754;SDS011;2902;42.130;24.732;2023-06-19T12:46:34;11.30;;;2.97;;
5754;SDS011;2902;42.130;24.732;2023-06-19T12:49:01;2.72;;;2.55;;
5754;SDS011;2902;42.130;24.732;2023-06-19T12:51:28;8.98;;;2.38;;
5754;SDS011;2902;42.130;24.732;2023-06-19T12:53:55;8.52;;;5.05;;
5754;SDS011;2902;42.130;24.732;2023-06-19T12:56:22;4.20;;;3.25;;
5754;SDS011;2902;42.130;24.732;2023-06-19T12:58:48;3.95;;;3.65;;
5754;SDS011;2902;42.130;24.732;2023-06-19T13:01:15;3.00;;;2.72;;
5754;SDS011;2902;42.130;24.732;2023-06-19T13:03:43;7.45;;;3.28;;
5754;SDS011;2902;42.130;24.732;2023-06-19T13:06:10;7.00;;;2.90;;
5754;SDS011;2902;42.130;24.732;2023-06-19T13:08:37;3.92;;;2.78;;
5754;SDS011;2902;42.130;24.732;2023-06-19T13:11:03;2.65;;;2.47;;
5754;SDS011;2902;42.130;24.732;2023-06-19T13:13:30;12.68;;;4.05;;
5754;SDS011;2902;42.130;24.732;2023-06-19T13:15:57;3.95;;;3.38;;
5754;SDS011;2902;42.130;24.732;2023-06-19T13:18:23;14.82;;;5.32;;
5754;SDS011;2902;42.130;24.732;2023-06-19T13:20:51;3.08;;;2.88;;
5754;SDS011;2902;42.130;24.732;2023-06-19T13:23:18;2.63;;;2.35;;
5754;SDS011;2902;42.130;24.732;2023-06-19T13:25:45;3.78;;;2.92;;
5754;SDS011;2902;42.130;24.732;2023-06-19T13:28:11;17.08;;;3.50;;
5754;SDS011;2902;42.130;24.732;2023-06-19T13:30:38;7.57;;;3.20;;
5754;SDS011;2902;42.130;24.732;2023-06-19T13:33:05;6.33;;;3.53;;
5754;SDS011;2902;42.130;24.732;2023-06-19T13:35:32;6.93;;;3.33;;
5754;SDS011;2902;42.130;24.732;2023-06-19T13:38:00;3.92;;;3.55;;
5754;SDS011;2902;42.130;24.732;2023-06-19T13:40:26;3.58;;;3.25;;
5754;SDS011;2902;42.130;24.732;2023-06-19T13:42:53;3.67;;;3.47;;
5754;SDS011;2902;42.130;24.732;2023-06-19T13:45:20;6.90;;;3.43;;
5754;SDS011;2902;42.130;24.732;2023-06-19T13:47:47;6.47;;;3.38;;
5754;SDS011;2902;42.130;24.732;2023-06-19T13:50:13;3.22;;;2.92;;
5754;SDS011;2902;42.130;24.732;2023-06-19T13:52:43;7.45;;;3.38;;
5754;SDS011;2902;42.130;24.732;2023-06-19T13:55:11;3.40;;;3.13;;
5754;SDS011;2902;42.130;24.732;2023-06-19T13:57:39;3.60;;;3.40;;
5754;SDS011;2902;42.130;24.732;2023-06-19T14:00:06;3.90;;;3.70;;
5754;SDS011;2902;42.130;24.732;2023-06-19T14:02:35;4.03;;;3.83;;
5754;SDS011;2902;42.130;24.732;2023-06-19T14:05:02;22.45;;;6.10;;
5754;SDS011;2902;42.130;24.732;2023-06-19T14:07:29;5.63;;;4.57;;
5754;SDS011;2902;42.130;24.732;2023-06-19T14:09:56;5.22;;;4.25;;
5754;SDS011;2902;42.130;24.732;2023-06-19T14:12:24;4.60;;;4.22;;
5754;SDS011;2902;42.130;24.732;2023-06-19T14:14:51;4.95;;;4.10;;
5754;SDS011;2902;42.130;24.732;2023-06-19T14:17:18;4.65;;;4.05;;
5754;SDS011;2902;42.130;24.732;2023-06-19T14:19:44;5.18;;;4.25;;
5754;SDS011;2902;42.130;24.732;2023-06-19T14:22:11;6.25;;;4.25;;
5754;SDS011;2902;42.130;24.732;2023-06-19T14:24:37;5.73;;;4.90;;
5754;SDS011;2902;42.130;24.732;2023-06-19T14:27:05;5.15;;;4.38;;
5754;SDS011;2902;42.130;24.732;2023-06-19T14:29:33;5.15;;;4.32;;
5754;SDS011;2902;42.130;24.732;2023-06-19T14:32:00;4.80;;;4.60;;
5754;SDS011;2902;42.130;24.732;2023-06-19T14:34:27;4.83;;;4.43;;
5754;SDS011;2902;42.130;24.732;2023-06-19T14:36:54;4.85;;;4.55;;
5754;SDS011;2902;42.130;24.732;2023-06-19T14:39:21;4.60;;;4.20;;
5754;SDS011;2902;42.130;24.732;2023-06-19T14:41:48;4.57;;;4.17;;
5754;SDS011;2902;42.130;24.732;2023-06-19T14:44:14;5.60;;;4.87;;
5754;SDS011;2902;42.130;24.732;2023-06-19T14:46:42;4.20;;;4.00;;
5754;SDS011;2902;42.130;24.732;2023-06-19T14:49:10;7.67;;;5.03;;
5754;SDS011;2902;42.130;24.732;2023-06-19T14:51:38;6.28;;;4.65;;
5754;SDS011;2902;42.130;24.732;2023-06-19T14:54:05;4.33;;;4.10;;
5754;SDS011;2902;42.130;24.732;2023-06-19T14:56:32;4.85;;;4.65;;
5754;SDS011;2902;42.130;24.732;2023-06-19T14:58:59;4.63;;;4.23;;
5754;SDS011;2902;42.130;24.732;2023-06-19T15:01:26;10.67;;;4.27;;